Saint Francis River (Missouri), Saco (07036100)

StateMissouriLatestGood (1670 cfs)
RiverSaint Francis RiverRatingObservedEstimated
Updated2020-02-25 16:00 (29 minutes ago)Flood - The river is flooding. Obstacles can be treacherous or deadly. The river should be avoided at this stage for casual trips and definitely for the inexperienced. Trips should be attempted only with protective gear and equipment.Flood(none)4443
Discharge1670 cfs (median: 672 cfs)High - The river is high and potentially dangerous, especially for the young and / or inexperienced. Normal stream obstacles are sometimes difficult to navigate. Extended distances can be attempted, but canoe travel may not be advisable.High(none)1847
Height5.59 feetGood - Conditions are ideal for a canoe or kayak. Boats typically will drag on fewer than one-quarter of riffles, if at all, and portages are unnecessary or rare. Normal float lengths can be attempted without a problem.Good(none)670
TrendFalling (rising over 24 hours)Low - River is low but can still be floated. Some riffles are okay but most come with significant dragging and might need a portage. Float lengths should be reduced to accommodate low flow, dragging, and portages.Low(none)183
USGSExternal icon USGS Site (External icon Google Maps)Poor - River is too low to float comfortably. Most or all riffles will drag or must be portaged and some obstacles (such as slick shelf rock) cause undue problems. Avoid the river at this stage for casual paddling trips.Poor(none)45

Trending Data

Plot Image

Trips for Saint Francis River (Missouri), Saco (07036100)

DateStartEndDistanceConditionDischargeHeightFishingDetails

A total of 0 rows are displayed.

Condition Descriptions

Fishing Conditions

Fish Species

Notes

Classic Trip List

The classic River Trips application is still available for use. It is updated with the new system using a data retrofit. It is no longer maintained. The original River Trips application is no longer updated (as of 1 Dec 2016) but can be checked for errors or for the condition of the data before it was converted to the new system.

Gauge Data Table

ObservationHeightDischargeMaximum
Discharge
Minimum
Discharge
Mean
Discharge
P05P10P20P25P50
(Median)
P75P80P90P95
2020-02-25 16:00 5.59 1670 19900 (2018) 140 (1996) 2130 167 272 337 386 672 1640 2730 7050 14200
2020-02-25 15:30 5.61 1690 19900 (2018) 140 (1996) 2130 167 272 337 386 672 1640 2730 7050 14200
2020-02-25 15:00 5.63 1700 19900 (2018) 140 (1996) 2130 167 272 337 386 672 1640 2730 7050 14200
2020-02-25 14:30 5.65 1720 19900 (2018) 140 (1996) 2130 167 272 337 386 672 1640 2730 7050 14200
2020-02-25 14:00 5.65 1720 19900 (2018) 140 (1996) 2130 167 272 337 386 672 1640 2730 7050 14200
2020-02-25 13:30 5.66 1730 19900 (2018) 140 (1996) 2130 167 272 337 386 672 1640 2730 7050 14200
2020-02-25 13:00 5.68 1740 19900 (2018) 140 (1996) 2130 167 272 337 386 672 1640 2730 7050 14200
2020-02-25 12:30 5.69 1750 19900 (2018) 140 (1996) 2130 167 272 337 386 672 1640 2730 7050 14200
2020-02-25 12:00 5.71 1760 19900 (2018) 140 (1996) 2130 167 272 337 386 672 1640 2730 7050 14200
2020-02-25 11:30 5.72 1770 19900 (2018) 140 (1996) 2130 167 272 337 386 672 1640 2730 7050 14200
2020-02-25 11:00 5.74 1790 19900 (2018) 140 (1996) 2130 167 272 337 386 672 1640 2730 7050 14200
2020-02-25 10:30 5.75 1790 19900 (2018) 140 (1996) 2130 167 272 337 386 672 1640 2730 7050 14200
2020-02-25 10:00 5.76 1800 19900 (2018) 140 (1996) 2130 167 272 337 386 672 1640 2730 7050 14200
2020-02-25 09:30 5.76 1800 19900 (2018) 140 (1996) 2130 167 272 337 386 672 1640 2730 7050 14200
2020-02-25 09:00 5.78 1820 19900 (2018) 140 (1996) 2130 167 272 337 386 672 1640 2730 7050 14200
2020-02-25 08:30 5.79 1820 19900 (2018) 140 (1996) 2130 167 272 337 386 672 1640 2730 7050 14200
2020-02-25 08:00 5.79 1820 19900 (2018) 140 (1996) 2130 167 272 337 386 672 1640 2730 7050 14200
2020-02-25 07:30 5.79 1820 19900 (2018) 140 (1996) 2130 167 272 337 386 672 1640 2730 7050 14200
2020-02-25 07:00 5.78 1820 19900 (2018) 140 (1996) 2130 167 272 337 386 672 1640 2730 7050 14200
2020-02-25 06:30 5.77 1810 19900 (2018) 140 (1996) 2130 167 272 337 386 672 1640 2730 7050 14200
2020-02-25 06:00 5.77 1810 19900 (2018) 140 (1996) 2130 167 272 337 386 672 1640 2730 7050 14200
2020-02-25 05:30 5.74 1790 19900 (2018) 140 (1996) 2130 167 272 337 386 672 1640 2730 7050 14200
2020-02-25 05:00 5.71 1760 19900 (2018) 140 (1996) 2130 167 272 337 386 672 1640 2730 7050 14200
2020-02-25 04:30 5.67 1730 19900 (2018) 140 (1996) 2130 167 272 337 386 672 1640 2730 7050 14200
2020-02-25 04:00 5.62 1700 19900 (2018) 140 (1996) 2130 167 272 337 386 672 1640 2730 7050 14200
2020-02-25 03:30 5.55 1650 19900 (2018) 140 (1996) 2130 167 272 337 386 672 1640 2730 7050 14200
2020-02-25 03:00 5.46 1580 19900 (2018) 140 (1996) 2130 167 272 337 386 672 1640 2730 7050 14200
2020-02-25 02:30 5.37 1520 19900 (2018) 140 (1996) 2130 167 272 337 386 672 1640 2730 7050 14200
2020-02-25 02:00 5.26 1440 19900 (2018) 140 (1996) 2130 167 272 337 386 672 1640 2730 7050 14200
2020-02-25 01:30 5.14 1360 19900 (2018) 140 (1996) 2130 167 272 337 386 672 1640 2730 7050 14200
2020-02-25 01:00 5.03 1290 19900 (2018) 140 (1996) 2130 167 272 337 386 672 1640 2730 7050 14200
2020-02-25 00:30 4.93 1230 19900 (2018) 140 (1996) 2130 167 272 337 386 672 1640 2730 7050 14200
2020-02-25 00:00 4.83 1170 19900 (2018) 140 (1996) 2130 167 272 337 386 672 1640 2730 7050 14200
2020-02-24 23:30 4.76 1130 19700 (1985) 145 (1996) 1900 172 273 355 370 731 1260 1560 3520 16100
2020-02-24 23:00 4.68 1080 19700 (1985) 145 (1996) 1900 172 273 355 370 731 1260 1560 3520 16100
2020-02-24 22:30 4.62 1050 19700 (1985) 145 (1996) 1900 172 273 355 370 731 1260 1560 3520 16100
2020-02-24 22:00 4.55 1010 19700 (1985) 145 (1996) 1900 172 273 355 370 731 1260 1560 3520 16100
2020-02-24 21:30 4.49 972 19700 (1985) 145 (1996) 1900 172 273 355 370 731 1260 1560 3520 16100
2020-02-24 21:00 4.44 943 19700 (1985) 145 (1996) 1900 172 273 355 370 731 1260 1560 3520 16100
2020-02-24 20:30 4.39 915 19700 (1985) 145 (1996) 1900 172 273 355 370 731 1260 1560 3520 16100
2020-02-24 20:00 4.34 888 19700 (1985) 145 (1996) 1900 172 273 355 370 731 1260 1560 3520 16100
2020-02-24 19:30 4.29 861 19700 (1985) 145 (1996) 1900 172 273 355 370 731 1260 1560 3520 16100
2020-02-24 19:00 4.25 840 19700 (1985) 145 (1996) 1900 172 273 355 370 731 1260 1560 3520 16100
2020-02-24 18:30 4.20 814 19700 (1985) 145 (1996) 1900 172 273 355 370 731 1260 1560 3520 16100
2020-02-24 18:00 4.16 793 19700 (1985) 145 (1996) 1900 172 273 355 370 731 1260 1560 3520 16100
2020-02-24 17:30 4.12 773 19700 (1985) 145 (1996) 1900 172 273 355 370 731 1260 1560 3520 16100
2020-02-24 17:00 4.09 758 19700 (1985) 145 (1996) 1900 172 273 355 370 731 1260 1560 3520 16100
2020-02-24 16:30 4.06 743 19700 (1985) 145 (1996) 1900 172 273 355 370 731 1260 1560 3520 16100
2020-02-24 16:00 4.04 733 19700 (1985) 145 (1996) 1900 172 273 355 370 731 1260 1560 3520 16100
2020-02-24 15:30 4.02 724 19700 (1985) 145 (1996) 1900 172 273 355 370 731 1260 1560 3520 16100
2020-02-24 15:00 3.99 709 19700 (1985) 145 (1996) 1900 172 273 355 370 731 1260 1560 3520 16100
2020-02-24 14:30 3.98 704 19700 (1985) 145 (1996) 1900 172 273 355 370 731 1260 1560 3520 16100
2020-02-24 14:00 3.96 695 19700 (1985) 145 (1996) 1900 172 273 355 370 731 1260 1560 3520 16100
2020-02-24 13:30 3.94 685 19700 (1985) 145 (1996) 1900 172 273 355 370 731 1260 1560 3520 16100
2020-02-24 13:00 3.92 676 19700 (1985) 145 (1996) 1900 172 273 355 370 731 1260 1560 3520 16100
2020-02-24 12:30 3.90 667 19700 (1985) 145 (1996) 1900 172 273 355 370 731 1260 1560 3520 16100
2020-02-24 12:00 3.89 662 19700 (1985) 145 (1996) 1900 172 273 355 370 731 1260 1560 3520 16100
2020-02-24 11:30 3.87 653 19700 (1985) 145 (1996) 1900 172 273 355 370 731 1260 1560 3520 16100
2020-02-24 11:00 3.86 648 19700 (1985) 145 (1996) 1900 172 273 355 370 731 1260 1560 3520 16100
2020-02-24 10:30 3.85 644 19700 (1985) 145 (1996) 1900 172 273 355 370 731 1260 1560 3520 16100
2020-02-24 10:00 3.84 639 19700 (1985) 145 (1996) 1900 172 273 355 370 731 1260 1560 3520 16100
2020-02-24 09:30 3.83 635 19700 (1985) 145 (1996) 1900 172 273 355 370 731 1260 1560 3520 16100
2020-02-24 09:00 3.82 630 19700 (1985) 145 (1996) 1900 172 273 355 370 731 1260 1560 3520 16100
2020-02-24 08:30 3.81 626 19700 (1985) 145 (1996) 1900 172 273 355 370 731 1260 1560 3520 16100
2020-02-24 08:00 3.81 626 19700 (1985) 145 (1996) 1900 172 273 355 370 731 1260 1560 3520 16100
2020-02-24 07:30 3.80 621 19700 (1985) 145 (1996) 1900 172 273 355 370 731 1260 1560 3520 16100
2020-02-24 07:00 3.80 621 19700 (1985) 145 (1996) 1900 172 273 355 370 731 1260 1560 3520 16100
2020-02-24 06:30 3.79 617 19700 (1985) 145 (1996) 1900 172 273 355 370 731 1260 1560 3520 16100
2020-02-24 05:30 3.78 612 19700 (1985) 145 (1996) 1900 172 273 355 370 731 1260 1560 3520 16100
2020-02-24 05:00 3.77 608 19700 (1985) 145 (1996) 1900 172 273 355 370 731 1260 1560 3520 16100
2020-02-24 04:30 3.76 603 19700 (1985) 145 (1996) 1900 172 273 355 370 731 1260 1560 3520 16100
2020-02-24 04:00 3.75 599 19700 (1985) 145 (1996) 1900 172 273 355 370 731 1260 1560 3520 16100
2020-02-24 03:30 3.74 594 19700 (1985) 145 (1996) 1900 172 273 355 370 731 1260 1560 3520 16100
2020-02-24 03:00 3.74 594 19700 (1985) 145 (1996) 1900 172 273 355 370 731 1260 1560 3520 16100
2020-02-24 02:30 3.73 590 19700 (1985) 145 (1996) 1900 172 273 355 370 731 1260 1560 3520 16100
2020-02-24 02:00 3.73 590 19700 (1985) 145 (1996) 1900 172 273 355 370 731 1260 1560 3520 16100
2020-02-24 01:30 3.72 586 19700 (1985) 145 (1996) 1900 172 273 355 370 731 1260 1560 3520 16100
2020-02-24 01:00 3.72 586 19700 (1985) 145 (1996) 1900 172 273 355 370 731 1260 1560 3520 16100
2020-02-24 00:30 3.72 586 19700 (1985) 145 (1996) 1900 172 273 355 370 731 1260 1560 3520 16100
2020-02-24 00:00 3.72 586 19700 (1985) 145 (1996) 1900 172 273 355 370 731 1260 1560 3520 16100
2020-02-23 23:30 3.72 586 24300 (1985) 150 (1996) 2010 173 275 383 385 644 1660 1990 4650 16200
2020-02-23 23:00 3.72 586 24300 (1985) 150 (1996) 2010 173 275 383 385 644 1660 1990 4650 16200
2020-02-23 22:30 3.72 586 24300 (1985) 150 (1996) 2010 173 275 383 385 644 1660 1990 4650 16200
2020-02-23 22:00 3.73 590 24300 (1985) 150 (1996) 2010 173 275 383 385 644 1660 1990 4650 16200
2020-02-23 21:30 3.72 586 24300 (1985) 150 (1996) 2010 173 275 383 385 644 1660 1990 4650 16200
2020-02-23 21:00 3.73 590 24300 (1985) 150 (1996) 2010 173 275 383 385 644 1660 1990 4650 16200
2020-02-23 20:30 3.73 590 24300 (1985) 150 (1996) 2010 173 275 383 385 644 1660 1990 4650 16200
2020-02-23 20:00 3.73 590 24300 (1985) 150 (1996) 2010 173 275 383 385 644 1660 1990 4650 16200
2020-02-23 19:30 3.73 590 24300 (1985) 150 (1996) 2010 173 275 383 385 644 1660 1990 4650 16200
2020-02-23 19:00 3.73 590 24300 (1985) 150 (1996) 2010 173 275 383 385 644 1660 1990 4650 16200
2020-02-23 18:30 3.73 590 24300 (1985) 150 (1996) 2010 173 275 383 385 644 1660 1990 4650 16200
2020-02-23 18:00 3.73 590 24300 (1985) 150 (1996) 2010 173 275 383 385 644 1660 1990 4650 16200
2020-02-23 17:30 3.73 590 24300 (1985) 150 (1996) 2010 173 275 383 385 644 1660 1990 4650 16200
2020-02-23 17:00 3.73 590 24300 (1985) 150 (1996) 2010 173 275 383 385 644 1660 1990 4650 16200
2020-02-23 16:30 3.73 590 24300 (1985) 150 (1996) 2010 173 275 383 385 644 1660 1990 4650 16200
2020-02-23 16:00 3.74 594 24300 (1985) 150 (1996) 2010 173 275 383 385 644 1660 1990 4650 16200
2020-02-23 15:30 3.74 594 24300 (1985) 150 (1996) 2010 173 275 383 385 644 1660 1990 4650 16200
2020-02-23 15:00 3.74 594 24300 (1985) 150 (1996) 2010 173 275 383 385 644 1660 1990 4650 16200
2020-02-23 14:30 3.74 594 24300 (1985) 150 (1996) 2010 173 275 383 385 644 1660 1990 4650 16200
2020-02-23 14:00 3.75 599 24300 (1985) 150 (1996) 2010 173 275 383 385 644 1660 1990 4650 16200
2020-02-23 13:30 3.74 594 24300 (1985) 150 (1996) 2010 173 275 383 385 644 1660 1990 4650 16200
2020-02-23 13:00 3.75 599 24300 (1985) 150 (1996) 2010 173 275 383 385 644 1660 1990 4650 16200
2020-02-23 12:30 3.75 599 24300 (1985) 150 (1996) 2010 173 275 383 385 644 1660 1990 4650 16200
2020-02-23 12:00 3.75 599 24300 (1985) 150 (1996) 2010 173 275 383 385 644 1660 1990 4650 16200
2020-02-23 11:30 3.75 599 24300 (1985) 150 (1996) 2010 173 275 383 385 644 1660 1990 4650 16200
2020-02-23 11:00 3.75 599 24300 (1985) 150 (1996) 2010 173 275 383 385 644 1660 1990 4650 16200
2020-02-23 10:30 3.75 599 24300 (1985) 150 (1996) 2010 173 275 383 385 644 1660 1990 4650 16200
2020-02-23 10:00 3.76 603 24300 (1985) 150 (1996) 2010 173 275 383 385 644 1660 1990 4650 16200
2020-02-23 09:30 3.76 603 24300 (1985) 150 (1996) 2010 173 275 383 385 644 1660 1990 4650 16200
2020-02-23 09:00 3.75 599 24300 (1985) 150 (1996) 2010 173 275 383 385 644 1660 1990 4650 16200
2020-02-23 08:30 3.75 599 24300 (1985) 150 (1996) 2010 173 275 383 385 644 1660 1990 4650 16200
2020-02-23 08:00 3.76 603 24300 (1985) 150 (1996) 2010 173 275 383 385 644 1660 1990 4650 16200
2020-02-23 07:30 3.76 603 24300 (1985) 150 (1996) 2010 173 275 383 385 644 1660 1990 4650 16200
2020-02-23 07:00 3.76 603 24300 (1985) 150 (1996) 2010 173 275 383 385 644 1660 1990 4650 16200
2020-02-23 06:30 3.76 603 24300 (1985) 150 (1996) 2010 173 275 383 385 644 1660 1990 4650 16200
2020-02-23 06:00 3.76 603 24300 (1985) 150 (1996) 2010 173 275 383 385 644 1660 1990 4650 16200
2020-02-23 05:30 3.77 608 24300 (1985) 150 (1996) 2010 173 275 383 385 644 1660 1990 4650 16200
2020-02-23 05:00 3.77 608 24300 (1985) 150 (1996) 2010 173 275 383 385 644 1660 1990 4650 16200
2020-02-23 04:30 3.77 608 24300 (1985) 150 (1996) 2010 173 275 383 385 644 1660 1990 4650 16200
2020-02-23 04:00 3.77 608 24300 (1985) 150 (1996) 2010 173 275 383 385 644 1660 1990 4650 16200
2020-02-23 03:30 3.76 603 24300 (1985) 150 (1996) 2010 173 275 383 385 644 1660 1990 4650 16200
2020-02-23 03:00 3.77 608 24300 (1985) 150 (1996) 2010 173 275 383 385 644 1660 1990 4650 16200
2020-02-23 02:30 3.77 608 24300 (1985) 150 (1996) 2010 173 275 383 385 644 1660 1990 4650 16200
2020-02-23 02:00 3.78 612 24300 (1985) 150 (1996) 2010 173 275 383 385 644 1660 1990 4650 16200
2020-02-23 01:30 3.78 612 24300 (1985) 150 (1996) 2010 173 275 383 385 644 1660 1990 4650 16200
2020-02-23 01:00 3.78 612 24300 (1985) 150 (1996) 2010 173 275 383 385 644 1660 1990 4650 16200
2020-02-23 00:30 3.78 612 24300 (1985) 150 (1996) 2010 173 275 383 385 644 1660 1990 4650 16200
2020-02-23 00:00 3.78 612 24300 (1985) 150 (1996) 2010 173 275 383 385 644 1660 1990 4650 16200
2020-02-22 23:30 3.78 612 9150 (2018) 155 (1996) 1440 176 264 400 421 725 1360 1620 3740 7660
2020-02-22 23:00 3.78 612 9150 (2018) 155 (1996) 1440 176 264 400 421 725 1360 1620 3740 7660
2020-02-22 22:30 3.78 612 9150 (2018) 155 (1996) 1440 176 264 400 421 725 1360 1620 3740 7660
2020-02-22 22:00 3.79 617 9150 (2018) 155 (1996) 1440 176 264 400 421 725 1360 1620 3740 7660
2020-02-22 21:30 3.78 612 9150 (2018) 155 (1996) 1440 176 264 400 421 725 1360 1620 3740 7660
2020-02-22 21:00 3.79 617 9150 (2018) 155 (1996) 1440 176 264 400 421 725 1360 1620 3740 7660
2020-02-22 20:30 3.79 617 9150 (2018) 155 (1996) 1440 176 264 400 421 725 1360 1620 3740 7660
2020-02-22 20:00 3.79 617 9150 (2018) 155 (1996) 1440 176 264 400 421 725 1360 1620 3740 7660
2020-02-22 19:30 3.79 617 9150 (2018) 155 (1996) 1440 176 264 400 421 725 1360 1620 3740 7660
2020-02-22 19:00 3.79 617 9150 (2018) 155 (1996) 1440 176 264 400 421 725 1360 1620 3740 7660
2020-02-22 18:30 3.80 621 9150 (2018) 155 (1996) 1440 176 264 400 421 725 1360 1620 3740 7660
2020-02-22 18:00 3.79 617 9150 (2018) 155 (1996) 1440 176 264 400 421 725 1360 1620 3740 7660
2020-02-22 17:30 3.80 621 9150 (2018) 155 (1996) 1440 176 264 400 421 725 1360 1620 3740 7660
2020-02-22 17:00 3.80 621 9150 (2018) 155 (1996) 1440 176 264 400 421 725 1360 1620 3740 7660
2020-02-22 16:30 3.79 617 9150 (2018) 155 (1996) 1440 176 264 400 421 725 1360 1620 3740 7660
2020-02-22 16:00 3.80 621 9150 (2018) 155 (1996) 1440 176 264 400 421 725 1360 1620 3740 7660
2020-02-22 15:30 3.81 626 9150 (2018) 155 (1996) 1440 176 264 400 421 725 1360 1620 3740 7660
2020-02-22 15:00 3.81 626 9150 (2018) 155 (1996) 1440 176 264 400 421 725 1360 1620 3740 7660
2020-02-22 14:30 3.81 626 9150 (2018) 155 (1996) 1440 176 264 400 421 725 1360 1620 3740 7660
2020-02-22 14:00 3.81 626 9150 (2018) 155 (1996) 1440 176 264 400 421 725 1360 1620 3740 7660
2020-02-22 13:30 3.81 626 9150 (2018) 155 (1996) 1440 176 264 400 421 725 1360 1620 3740 7660
2020-02-22 13:00 3.82 630 9150 (2018) 155 (1996) 1440 176 264 400 421 725 1360 1620 3740 7660
2020-02-22 12:30 3.82 630 9150 (2018) 155 (1996) 1440 176 264 400 421 725 1360 1620 3740 7660
2020-02-22 12:00 3.82 630 9150 (2018) 155 (1996) 1440 176 264 400 421 725 1360 1620 3740 7660
2020-02-22 11:30 3.82 630 9150 (2018) 155 (1996) 1440 176 264 400 421 725 1360 1620 3740 7660
2020-02-22 11:00 3.82 630 9150 (2018) 155 (1996) 1440 176 264 400 421 725 1360 1620 3740 7660
2020-02-22 10:30 3.82 630 9150 (2018) 155 (1996) 1440 176 264 400 421 725 1360 1620 3740 7660
2020-02-22 10:00 3.82 630 9150 (2018) 155 (1996) 1440 176 264 400 421 725 1360 1620 3740 7660
2020-02-22 09:30 3.82 630 9150 (2018) 155 (1996) 1440 176 264 400 421 725 1360 1620 3740 7660
2020-02-22 09:00 3.82 630 9150 (2018) 155 (1996) 1440 176 264 400 421 725 1360 1620 3740 7660
2020-02-22 08:30 3.83 635 9150 (2018) 155 (1996) 1440 176 264 400 421 725 1360 1620 3740 7660
2020-02-22 08:00 3.83 635 9150 (2018) 155 (1996) 1440 176 264 400 421 725 1360 1620 3740 7660
2020-02-22 07:30 3.83 635 9150 (2018) 155 (1996) 1440 176 264 400 421 725 1360 1620 3740 7660
2020-02-22 07:00 3.82 630 9150 (2018) 155 (1996) 1440 176 264 400 421 725 1360 1620 3740 7660
2020-02-22 06:30 3.83 635 9150 (2018) 155 (1996) 1440 176 264 400 421 725 1360 1620 3740 7660
2020-02-22 06:00 3.83 635 9150 (2018) 155 (1996) 1440 176 264 400 421 725 1360 1620 3740 7660
2020-02-22 05:30 3.83 635 9150 (2018) 155 (1996) 1440 176 264 400 421 725 1360 1620 3740 7660
2020-02-22 05:00 3.83 635 9150 (2018) 155 (1996) 1440 176 264 400 421 725 1360 1620 3740 7660
2020-02-22 04:30 3.84 639 9150 (2018) 155 (1996) 1440 176 264 400 421 725 1360 1620 3740 7660
2020-02-22 04:00 3.84 639 9150 (2018) 155 (1996) 1440 176 264 400 421 725 1360 1620 3740 7660
2020-02-22 03:30 3.85 644 9150 (2018) 155 (1996) 1440 176 264 400 421 725 1360 1620 3740 7660
2020-02-22 03:00 3.84 639 9150 (2018) 155 (1996) 1440 176 264 400 421 725 1360 1620 3740 7660
2020-02-22 02:30 3.85 644 9150 (2018) 155 (1996) 1440 176 264 400 421 725 1360 1620 3740 7660
2020-02-22 02:00 3.85 644 9150 (2018) 155 (1996) 1440 176 264 400 421 725 1360 1620 3740 7660
2020-02-22 01:30 3.85 644 9150 (2018) 155 (1996) 1440 176 264 400 421 725 1360 1620 3740 7660
2020-02-22 01:00 3.86 648 9150 (2018) 155 (1996) 1440 176 264 400 421 725 1360 1620 3740 7660
2020-02-22 00:30 3.86 648 9150 (2018) 155 (1996) 1440 176 264 400 421 725 1360 1620 3740 7660
2020-02-22 00:00 3.86 648 9150 (2018) 155 (1996) 1440 176 264 400 421 725 1360 1620 3740 7660
2020-02-21 23:30 3.86 648 13500 (2018) 159 (1996) 1560 179 207 409 462 673 1110 1540 4720 10900
2020-02-21 23:00 3.87 653 13500 (2018) 159 (1996) 1560 179 207 409 462 673 1110 1540 4720 10900
2020-02-21 22:30 3.86 648 13500 (2018) 159 (1996) 1560 179 207 409 462 673 1110 1540 4720 10900
2020-02-21 22:00 3.87 653 13500 (2018) 159 (1996) 1560 179 207 409 462 673 1110 1540 4720 10900
2020-02-21 21:30 3.87 653 13500 (2018) 159 (1996) 1560 179 207 409 462 673 1110 1540 4720 10900
2020-02-21 21:00 3.87 653 13500 (2018) 159 (1996) 1560 179 207 409 462 673 1110 1540 4720 10900
2020-02-21 20:30 3.88 657 13500 (2018) 159 (1996) 1560 179 207 409 462 673 1110 1540 4720 10900
2020-02-21 20:00 3.88 657 13500 (2018) 159 (1996) 1560 179 207 409 462 673 1110 1540 4720 10900
2020-02-21 19:30 3.89 662 13500 (2018) 159 (1996) 1560 179 207 409 462 673 1110 1540 4720 10900
2020-02-21 19:00 3.89 662 13500 (2018) 159 (1996) 1560 179 207 409 462 673 1110 1540 4720 10900
2020-02-21 18:30 3.89 662 13500 (2018) 159 (1996) 1560 179 207 409 462 673 1110 1540 4720 10900
2020-02-21 18:00 3.89 662 13500 (2018) 159 (1996) 1560 179 207 409 462 673 1110 1540 4720 10900
2020-02-21 17:30 3.90 667 13500 (2018) 159 (1996) 1560 179 207 409 462 673 1110 1540 4720 10900
2020-02-21 17:00 3.90 667 13500 (2018) 159 (1996) 1560 179 207 409 462 673 1110 1540 4720 10900
2020-02-21 16:30 3.91 671 13500 (2018) 159 (1996) 1560 179 207 409 462 673 1110 1540 4720 10900
2020-02-21 16:00 3.91 671 13500 (2018) 159 (1996) 1560 179 207 409 462 673 1110 1540 4720 10900
2020-02-21 15:30 3.91 671 13500 (2018) 159 (1996) 1560 179 207 409 462 673 1110 1540 4720 10900
2020-02-21 15:00 3.92 676 13500 (2018) 159 (1996) 1560 179 207 409 462 673 1110 1540 4720 10900
2020-02-21 14:30 3.91 671 13500 (2018) 159 (1996) 1560 179 207 409 462 673 1110 1540 4720 10900
2020-02-21 14:00 3.92 676 13500 (2018) 159 (1996) 1560 179 207 409 462 673 1110 1540 4720 10900
2020-02-21 13:30 3.93 681 13500 (2018) 159 (1996) 1560 179 207 409 462 673 1110 1540 4720 10900
2020-02-21 13:00 3.93 681 13500 (2018) 159 (1996) 1560 179 207 409 462 673 1110 1540 4720 10900
2020-02-21 12:30 3.93 681 13500 (2018) 159 (1996) 1560 179 207 409 462 673 1110 1540 4720 10900
2020-02-21 12:00 3.93 681 13500 (2018) 159 (1996) 1560 179 207 409 462 673 1110 1540 4720 10900
2020-02-21 11:30 3.94 685 13500 (2018) 159 (1996) 1560 179 207 409 462 673 1110 1540 4720 10900
2020-02-21 11:00 3.94 685 13500 (2018) 159 (1996) 1560 179 207 409 462 673 1110 1540 4720 10900
2020-02-21 10:30 3.94 685 13500 (2018) 159 (1996) 1560 179 207 409 462 673 1110 1540 4720 10900
2020-02-21 10:00 3.93 681 13500 (2018) 159 (1996) 1560 179 207 409 462 673 1110 1540 4720 10900
2020-02-21 09:30 3.94 685 13500 (2018) 159 (1996) 1560 179 207 409 462 673 1110 1540 4720 10900
2020-02-21 09:00 3.94 685 13500 (2018) 159 (1996) 1560 179 207 409 462 673 1110 1540 4720 10900
2020-02-21 08:30 3.94 685 13500 (2018) 159 (1996) 1560 179 207 409 462 673 1110 1540 4720 10900
2020-02-21 08:00 3.94 685 13500 (2018) 159 (1996) 1560 179 207 409 462 673 1110 1540 4720 10900
2020-02-21 07:30 3.95 690 13500 (2018) 159 (1996) 1560 179 207 409 462 673 1110 1540 4720 10900
2020-02-21 07:00 3.94 685 13500 (2018) 159 (1996) 1560 179 207 409 462 673 1110 1540 4720 10900
2020-02-21 06:30 3.95 690 13500 (2018) 159 (1996) 1560 179 207 409 462 673 1110 1540 4720 10900
2020-02-21 06:00 3.96 695 13500 (2018) 159 (1996) 1560 179 207 409 462 673 1110 1540 4720 10900
2020-02-21 05:30 3.96 695 13500 (2018) 159 (1996) 1560 179 207 409 462 673 1110 1540 4720 10900
2020-02-21 05:00 3.96 695 13500 (2018) 159 (1996) 1560 179 207 409 462 673 1110 1540 4720 10900
2020-02-21 04:30 3.96 695 13500 (2018) 159 (1996) 1560 179 207 409 462 673 1110 1540 4720 10900
2020-02-21 04:00 3.97 700 13500 (2018) 159 (1996) 1560 179 207 409 462 673 1110 1540 4720 10900
2020-02-21 03:30 3.97 700 13500 (2018) 159 (1996) 1560 179 207 409 462 673 1110 1540 4720 10900
2020-02-21 03:00 3.97 700 13500 (2018) 159 (1996) 1560 179 207 409 462 673 1110 1540 4720 10900
2020-02-21 02:30 3.98 704 13500 (2018) 159 (1996) 1560 179 207 409 462 673 1110 1540 4720 10900
2020-02-21 02:00 3.98 704 13500 (2018) 159 (1996) 1560 179 207 409 462 673 1110 1540 4720 10900
2020-02-21 01:30 3.98 704 13500 (2018) 159 (1996) 1560 179 207 409 462 673 1110 1540 4720 10900
2020-02-21 01:00 3.98 704 13500 (2018) 159 (1996) 1560 179 207 409 462 673 1110 1540 4720 10900
2020-02-21 00:30 3.99 709 13500 (2018) 159 (1996) 1560 179 207 409 462 673 1110 1540 4720 10900
2020-02-21 00:00 3.99 709 13500 (2018) 159 (1996) 1560 179 207 409 462 673 1110 1540 4720 10900
2020-02-20 23:30 3.99 709 10200 (2019) 162 (1996) 1180 170 194 312 363 688 1030 1120 2680 7340
2020-02-20 23:00 4.00 714 10200 (2019) 162 (1996) 1180 170 194 312 363 688 1030 1120 2680 7340
2020-02-20 22:30 4.00 714 10200 (2019) 162 (1996) 1180 170 194 312 363 688 1030 1120 2680 7340
2020-02-20 22:00 4.00 714 10200 (2019) 162 (1996) 1180 170 194 312 363 688 1030 1120 2680 7340
2020-02-20 21:30 4.00 714 10200 (2019) 162 (1996) 1180 170 194 312 363 688 1030 1120 2680 7340
2020-02-20 21:00 4.01 719 10200 (2019) 162 (1996) 1180 170 194 312 363 688 1030 1120 2680 7340
2020-02-20 20:30 4.01 719 10200 (2019) 162 (1996) 1180 170 194 312 363 688 1030 1120 2680 7340
2020-02-20 20:00 4.02 724 10200 (2019) 162 (1996) 1180 170 194 312 363 688 1030 1120 2680 7340
2020-02-20 19:30 4.02 724 10200 (2019) 162 (1996) 1180 170 194 312 363 688 1030 1120 2680 7340
2020-02-20 19:00 4.03 729 10200 (2019) 162 (1996) 1180 170 194 312 363 688 1030 1120 2680 7340
2020-02-20 18:30 4.02 724 10200 (2019) 162 (1996) 1180 170 194 312 363 688 1030 1120 2680 7340
2020-02-20 18:00 4.04 733 10200 (2019) 162 (1996) 1180 170 194 312 363 688 1030 1120 2680 7340
2020-02-20 17:30 4.04 733 10200 (2019) 162 (1996) 1180 170 194 312 363 688 1030 1120 2680 7340
2020-02-20 17:00 4.04 733 10200 (2019) 162 (1996) 1180 170 194 312 363 688 1030 1120 2680 7340
2020-02-20 16:30 4.05 738 10200 (2019) 162 (1996) 1180 170 194 312 363 688 1030 1120 2680 7340
2020-02-20 16:00 4.05 738 10200 (2019) 162 (1996) 1180 170 194 312 363 688 1030 1120 2680 7340
2020-02-20 15:30 4.06 743 10200 (2019) 162 (1996) 1180 170 194 312 363 688 1030 1120 2680 7340
2020-02-20 15:00 4.06 743 10200 (2019) 162 (1996) 1180 170 194 312 363 688 1030 1120 2680 7340
2020-02-20 14:30 4.06 743 10200 (2019) 162 (1996) 1180 170 194 312 363 688 1030 1120 2680 7340
2020-02-20 14:00 4.07 748 10200 (2019) 162 (1996) 1180 170 194 312 363 688 1030 1120 2680 7340
2020-02-20 13:30 4.06 743 10200 (2019) 162 (1996) 1180 170 194 312 363 688 1030 1120 2680 7340
2020-02-20 13:00 4.07 748 10200 (2019) 162 (1996) 1180 170 194 312 363 688 1030 1120 2680 7340
2020-02-20 12:30 4.08 753 10200 (2019) 162 (1996) 1180 170 194 312 363 688 1030 1120 2680 7340
2020-02-20 12:00 4.08 753 10200 (2019) 162 (1996) 1180 170 194 312 363 688 1030 1120 2680 7340
2020-02-20 11:30 4.09 758 10200 (2019) 162 (1996) 1180 170 194 312 363 688 1030 1120 2680 7340
2020-02-20 11:00 4.08 753 10200 (2019) 162 (1996) 1180 170 194 312 363 688 1030 1120 2680 7340
2020-02-20 10:30 4.08 753 10200 (2019) 162 (1996) 1180 170 194 312 363 688 1030 1120 2680 7340
2020-02-20 10:00 4.09 758 10200 (2019) 162 (1996) 1180 170 194 312 363 688 1030 1120 2680 7340
2020-02-20 09:30 4.09 758 10200 (2019) 162 (1996) 1180 170 194 312 363 688 1030 1120 2680 7340
2020-02-20 09:00 4.09 758 10200 (2019) 162 (1996) 1180 170 194 312 363 688 1030 1120 2680 7340
2020-02-20 08:30 4.09 758 10200 (2019) 162 (1996) 1180 170 194 312 363 688 1030 1120 2680 7340
2020-02-20 08:00 4.10 763 10200 (2019) 162 (1996) 1180 170 194 312 363 688 1030 1120 2680 7340
2020-02-20 07:30 4.10 763 10200 (2019) 162 (1996) 1180 170 194 312 363 688 1030 1120 2680 7340
2020-02-20 07:00 4.11 768 10200 (2019) 162 (1996) 1180 170 194 312 363 688 1030 1120 2680 7340
2020-02-20 06:30 4.11 768 10200 (2019) 162 (1996) 1180 170 194 312 363 688 1030 1120 2680 7340
2020-02-20 06:00 4.11 768 10200 (2019) 162 (1996) 1180 170 194 312 363 688 1030 1120 2680 7340
2020-02-20 05:30 4.12 773 10200 (2019) 162 (1996) 1180 170 194 312 363 688 1030 1120 2680 7340
2020-02-20 05:00 4.13 778 10200 (2019) 162 (1996) 1180 170 194 312 363 688 1030 1120 2680 7340
2020-02-20 04:30 4.13 778 10200 (2019) 162 (1996) 1180 170 194 312 363 688 1030 1120 2680 7340
2020-02-20 04:00 4.13 778 10200 (2019) 162 (1996) 1180 170 194 312 363 688 1030 1120 2680 7340
2020-02-20 03:30 4.14 783 10200 (2019) 162 (1996) 1180 170 194 312 363 688 1030 1120 2680 7340
2020-02-20 03:00 4.14 783 10200 (2019) 162 (1996) 1180 170 194 312 363 688 1030 1120 2680 7340
2020-02-20 02:30 4.14 783 10200 (2019) 162 (1996) 1180 170 194 312 363 688 1030 1120 2680 7340
2020-02-20 02:00 4.15 788 10200 (2019) 162 (1996) 1180 170 194 312 363 688 1030 1120 2680 7340
2020-02-20 01:30 4.16 793 10200 (2019) 162 (1996) 1180 170 194 312 363 688 1030 1120 2680 7340
2020-02-20 01:00 4.16 793 10200 (2019) 162 (1996) 1180 170 194 312 363 688 1030 1120 2680 7340
2020-02-20 00:30 4.16 793 10200 (2019) 162 (1996) 1180 170 194 312 363 688 1030 1120 2680 7340
2020-02-20 00:00 4.17 799 10200 (2019) 162 (1996) 1180 170 194 312 363 688 1030 1120 2680 7340
2020-02-19 23:30 4.17 799 3790 (2008) 162 (1996) 889 167 178 277 334 744 1110 1380 2050 3050
2020-02-19 23:00 4.18 804 3790 (2008) 162 (1996) 889 167 178 277 334 744 1110 1380 2050 3050
2020-02-19 22:30 4.19 809 3790 (2008) 162 (1996) 889 167 178 277 334 744 1110 1380 2050 3050
2020-02-19 22:00 4.19 809 3790 (2008) 162 (1996) 889 167 178 277 334 744 1110 1380 2050 3050
2020-02-19 21:30 4.19 809 3790 (2008) 162 (1996) 889 167 178 277 334 744 1110 1380 2050 3050
2020-02-19 21:00 4.20 814 3790 (2008) 162 (1996) 889 167 178 277 334 744 1110 1380 2050 3050
2020-02-19 20:30 4.20 814 3790 (2008) 162 (1996) 889 167 178 277 334 744 1110 1380 2050 3050
2020-02-19 20:00 4.21 819 3790 (2008) 162 (1996) 889 167 178 277 334 744 1110 1380 2050 3050
2020-02-19 19:30 4.22 824 3790 (2008) 162 (1996) 889 167 178 277 334 744 1110 1380 2050 3050
2020-02-19 19:00 4.22 824 3790 (2008) 162 (1996) 889 167 178 277 334 744 1110 1380 2050 3050
2020-02-19 18:30 4.23 830 3790 (2008) 162 (1996) 889 167 178 277 334 744 1110 1380 2050 3050
2020-02-19 18:00 4.23 830 3790 (2008) 162 (1996) 889 167 178 277 334 744 1110 1380 2050 3050
2020-02-19 17:30 4.24 835 3790 (2008) 162 (1996) 889 167 178 277 334 744 1110 1380 2050 3050
2020-02-19 17:00 4.25 840 3790 (2008) 162 (1996) 889 167 178 277 334 744 1110 1380 2050 3050
2020-02-19 16:30 4.25 840 3790 (2008) 162 (1996) 889 167 178 277 334 744 1110 1380 2050 3050
2020-02-19 16:00 4.26 845 3790 (2008) 162 (1996) 889 167 178 277 334 744 1110 1380 2050 3050
2020-02-19 15:30 4.26 845 3790 (2008) 162 (1996) 889 167 178 277 334 744 1110 1380 2050 3050
2020-02-19 15:00 4.27 851 3790 (2008) 162 (1996) 889 167 178 277 334 744 1110 1380 2050 3050
2020-02-19 14:30 4.28 856 3790 (2008) 162 (1996) 889 167 178 277 334 744 1110 1380 2050 3050
2020-02-19 14:00 4.29 861 3790 (2008) 162 (1996) 889 167 178 277 334 744 1110 1380 2050 3050
2020-02-19 13:30 4.29 861 3790 (2008) 162 (1996) 889 167 178 277 334 744 1110 1380 2050 3050
2020-02-19 13:00 4.30 867 3790 (2008) 162 (1996) 889 167 178 277 334 744 1110 1380 2050 3050
2020-02-19 12:30 4.30 867 3790 (2008) 162 (1996) 889 167 178 277 334 744 1110 1380 2050 3050
2020-02-19 12:00 4.32 877 3790 (2008) 162 (1996) 889 167 178 277 334 744 1110 1380 2050 3050
2020-02-19 11:30 4.31 872 3790 (2008) 162 (1996) 889 167 178 277 334 744 1110 1380 2050 3050
2020-02-19 11:00 4.32 877 3790 (2008) 162 (1996) 889 167 178 277 334 744 1110 1380 2050 3050
2020-02-19 10:30 4.32 877 3790 (2008) 162 (1996) 889 167 178 277 334 744 1110 1380 2050 3050
2020-02-19 10:00 4.32 877 3790 (2008) 162 (1996) 889 167 178 277 334 744 1110 1380 2050 3050
2020-02-19 09:30 4.33 883 3790 (2008) 162 (1996) 889 167 178 277 334 744 1110 1380 2050 3050
2020-02-19 09:00 4.34 888 3790 (2008) 162 (1996) 889 167 178 277 334 744 1110 1380 2050 3050
2020-02-19 08:30 4.34 888 3790 (2008) 162 (1996) 889 167 178 277 334 744 1110 1380 2050 3050
2020-02-19 08:00 4.35 894 3790 (2008) 162 (1996) 889 167 178 277 334 744 1110 1380 2050 3050
2020-02-19 07:30 4.36 899 3790 (2008) 162 (1996) 889 167 178 277 334 744 1110 1380 2050 3050
2020-02-19 07:00 4.36 899 3790 (2008) 162 (1996) 889 167 178 277 334 744 1110 1380 2050 3050
2020-02-19 06:30 4.36 899 3790 (2008) 162 (1996) 889 167 178 277 334 744 1110 1380 2050 3050
2020-02-19 06:00 4.37 905 3790 (2008) 162 (1996) 889 167 178 277 334 744 1110 1380 2050 3050
2020-02-19 05:30 4.38 910 3790 (2008) 162 (1996) 889 167 178 277 334 744 1110 1380 2050 3050
2020-02-19 05:00 4.38 910 3790 (2008) 162 (1996) 889 167 178 277 334 744 1110 1380 2050 3050
2020-02-19 04:30 4.39 915 3790 (2008) 162 (1996) 889 167 178 277 334 744 1110 1380 2050 3050
2020-02-19 04:00 4.39 915 3790 (2008) 162 (1996) 889 167 178 277 334 744 1110 1380 2050 3050
2020-02-19 03:30 4.39 915 3790 (2008) 162 (1996) 889 167 178 277 334 744 1110 1380 2050 3050
2020-02-19 03:00 4.39 915 3790 (2008) 162 (1996) 889 167 178 277 334 744 1110 1380 2050 3050
2020-02-19 02:30 4.40 921 3790 (2008) 162 (1996) 889 167 178 277 334 744 1110 1380 2050 3050
2020-02-19 02:00 4.41 927 3790 (2008) 162 (1996) 889 167 178 277 334 744 1110 1380 2050 3050
2020-02-19 01:30 4.42 932 3790 (2008) 162 (1996) 889 167 178 277 334 744 1110 1380 2050 3050
2020-02-19 01:00 4.42 932 3790 (2008) 162 (1996) 889 167 178 277 334 744 1110 1380 2050 3050
2020-02-19 00:30 4.43 938 3790 (2008) 162 (1996) 889 167 178 277 334 744 1110 1380 2050 3050
2020-02-19 00:00 4.43 938 3790 (2008) 162 (1996) 889 167 178 277 334 744 1110 1380 2050 3050
2020-02-18 23:30 4.43 938 10300 (2008) 164 (1996) 1100 164 176 282 351 741 1060 1220 1840 6580
2020-02-18 23:00 4.44 943 10300 (2008) 164 (1996) 1100 164 176 282 351 741 1060 1220 1840 6580
2020-02-18 22:30 4.44 943 10300 (2008) 164 (1996) 1100 164 176 282 351 741 1060 1220 1840 6580
2020-02-18 22:00 4.45 949 10300 (2008) 164 (1996) 1100 164 176 282 351 741 1060 1220 1840 6580
2020-02-18 21:30 4.46 955 10300 (2008) 164 (1996) 1100 164 176 282 351 741 1060 1220 1840 6580
2020-02-18 21:00 4.47 960 10300 (2008) 164 (1996) 1100 164 176 282 351 741 1060 1220 1840 6580
2020-02-18 20:30 4.48 966 10300 (2008) 164 (1996) 1100 164 176 282 351 741 1060 1220 1840 6580
2020-02-18 20:00 4.48 966 10300 (2008) 164 (1996) 1100 164 176 282 351 741 1060 1220 1840 6580
2020-02-18 19:30 4.48 966 10300 (2008) 164 (1996) 1100 164 176 282 351 741 1060 1220 1840 6580
2020-02-18 19:00 4.49 972 10300 (2008) 164 (1996) 1100 164 176 282 351 741 1060 1220 1840 6580
2020-02-18 18:30 4.49 972 10300 (2008) 164 (1996) 1100 164 176 282 351 741 1060 1220 1840 6580
2020-02-18 18:00 4.50 977 10300 (2008) 164 (1996) 1100 164 176 282 351 741 1060 1220 1840 6580
2020-02-18 17:30 4.51 983 10300 (2008) 164 (1996) 1100 164 176 282 351 741 1060 1220 1840 6580
2020-02-18 17:00 4.52 989 10300 (2008) 164 (1996) 1100 164 176 282 351 741 1060 1220 1840 6580
2020-02-18 16:30 4.52 989 10300 (2008) 164 (1996) 1100 164 176 282 351 741 1060 1220 1840 6580
2020-02-18 16:00 4.53 994 10300 (2008) 164 (1996) 1100 164 176 282 351 741 1060 1220 1840 6580
2020-02-18 15:30 4.53 994 10300 (2008) 164 (1996) 1100 164 176 282 351 741 1060 1220 1840 6580
2020-02-18 15:00 4.54 1000 10300 (2008) 164 (1996) 1100 164 176 282 351 741 1060 1220 1840 6580
2020-02-18 14:30 4.55 1010 10300 (2008) 164 (1996) 1100 164 176 282 351 741 1060 1220 1840 6580
2020-02-18 14:00 4.55 1010 10300 (2008) 164 (1996) 1100 164 176 282 351 741 1060 1220 1840 6580
2020-02-18 13:30 4.55 1010 10300 (2008) 164 (1996) 1100 164 176 282 351 741 1060 1220 1840 6580
2020-02-18 13:00 4.56 1010 10300 (2008) 164 (1996) 1100 164 176 282 351 741 1060 1220 1840 6580
2020-02-18 12:30 4.57 1020 10300 (2008) 164 (1996) 1100 164 176 282 351 741 1060 1220 1840 6580
2020-02-18 12:00 4.57 1020 10300 (2008) 164 (1996) 1100 164 176 282 351 741 1060 1220 1840 6580
2020-02-18 11:30 4.58 1020 10300 (2008) 164 (1996) 1100 164 176 282 351 741 1060 1220 1840 6580
2020-02-18 11:00 4.58 1020 10300 (2008) 164 (1996) 1100 164 176 282 351 741 1060 1220 1840 6580
2020-02-18 10:30 4.60 1030 10300 (2008) 164 (1996) 1100 164 176 282 351 741 1060 1220 1840 6580
2020-02-18 10:00 4.59 1030 10300 (2008) 164 (1996) 1100 164 176 282 351 741 1060 1220 1840 6580
2020-02-18 09:30 4.60 1030 10300 (2008) 164 (1996) 1100 164 176 282 351 741 1060 1220 1840 6580
2020-02-18 09:00 4.60 1030 10300 (2008) 164 (1996) 1100 164 176 282 351 741 1060 1220 1840 6580
2020-02-18 08:30 4.61 1040 10300 (2008) 164 (1996) 1100 164 176 282 351 741 1060 1220 1840 6580
2020-02-18 08:00 4.62 1050 10300 (2008) 164 (1996) 1100 164 176 282 351 741 1060 1220 1840 6580
2020-02-18 07:30 4.62 1050 10300 (2008) 164 (1996) 1100 164 176 282 351 741 1060 1220 1840 6580
2020-02-18 07:00 4.62 1050 10300 (2008) 164 (1996) 1100 164 176 282 351 741 1060 1220 1840 6580
2020-02-18 06:30 4.62 1050 10300 (2008) 164 (1996) 1100 164 176 282 351 741 1060 1220 1840 6580
2020-02-18 06:00 4.64 1060 10300 (2008) 164 (1996) 1100 164 176 282 351 741 1060 1220 1840 6580
2020-02-18 05:30 4.64 1060 10300 (2008) 164 (1996) 1100 164 176 282 351 741 1060 1220 1840 6580
2020-02-18 05:00 4.64 1060 10300 (2008) 164 (1996) 1100 164 176 282 351 741 1060 1220 1840 6580
2020-02-18 04:30 4.65 1060 10300 (2008) 164 (1996) 1100 164 176 282 351 741 1060 1220 1840 6580
2020-02-18 04:00 4.66 1070 10300 (2008) 164 (1996) 1100 164 176 282 351 741 1060 1220 1840 6580
2020-02-18 03:30 4.66 1070 10300 (2008) 164 (1996) 1100 164 176 282 351 741 1060 1220 1840 6580
2020-02-18 03:00 4.67 1070 10300 (2008) 164 (1996) 1100 164 176 282 351 741 1060 1220 1840 6580
2020-02-18 02:30 4.67 1070 10300 (2008) 164 (1996) 1100 164 176 282 351 741 1060 1220 1840 6580
2020-02-18 02:00 4.68 1080 10300 (2008) 164 (1996) 1100 164 176 282 351 741 1060 1220 1840 6580
2020-02-18 01:30 4.69 1090 10300 (2008) 164 (1996) 1100 164 176 282 351 741 1060 1220 1840 6580
2020-02-18 01:00 4.69 1090 10300 (2008) 164 (1996) 1100 164 176 282 351 741 1060 1220 1840 6580
2020-02-18 00:30 4.70 1090 10300 (2008) 164 (1996) 1100 164 176 282 351 741 1060 1220 1840 6580
2020-02-18 00:00 4.70 1090 10300 (2008) 164 (1996) 1100 164 176 282 351 741 1060 1220 1840 6580

A total of 368 rows are displayed for years 1984 through 2019.